Station info - map view · info · telemetry · weather · raw · status · beacons · messages · bulletins · browse · moving · my account
Callsign, ship name or locator: Clear       
It is possible to search using wildcards (*?) after a prefix. Example: OH*
APRS station K6VFA-9 - show graphs
Map loading...
Comment: 146.520MHz
Mic-E message: En route
Location: 37°47.50' N 118°28.50' W - locator DM07ST30AA - show map - static map
28.2 miles North bearing 353° from Dixon Lane-Meadow Creek, Inyo County, California, United States [?]
28.9 miles East bearing 70° from Mammoth Lakes, Mono County, California, United States
89.7 miles Northeast bearing 44° from Clovis, Fresno County, California, United States
101.4 miles Northeast bearing 44° from Fresno, Fresno County, California, United States
Last position: 2019-04-07 12:25:39 EDT (17d 7h52m ago)
2019-04-07 09:25:39 PDT local time at Dixon Lane-Meadow Creek, United States [?]
Altitude: 5335 ft
Position ambiguous: Precision reduced at transmitter by 2 digits, position resolution approximately 1.2 miles.
Course: 347°
Speed: 60 MPH
Device: Yaesu: FTM-400DR (rig)
Last path: K6VFA-9>SW4WZZ via BISHOP,WIDE1,VEGAS,WIDE2,qAR,N6LXX-1 (good)
Positions stored: 4713
Stations near current position of K6VFA-9 - show more
callsign distance last heard - EDT      callsign distance last heard - EDT
WW6CP-N18.6 miles 166°2019-04-21 22:59:40 DU6XZ-N18.6 miles 166°2019-03-29 20:04:21
WK0I B29.6 miles 61°2019-04-20 19:56:14 WK0I-B29.6 miles 61°2019-04-20 19:56:24
WK0I29.6 miles 61°2019-04-08 01:32:25 DW586829.9 miles 248°2019-04-24 20:15:42
Stations which heard K6VFA-9 directly on radio –
callsign pkts first heard - EDT last heard longest (tx => rx) longest at - EDT
KF6RAL-15 4 2019-04-05 17:41:12 2019-04-07 02:32:49 DM15EK > DM04PR 77.2 miles 232° 2019-04-07 02:32:49
W6SCE-10 2 2019-04-05 20:24:50 2019-04-07 00:19:04 DM13FW > DM04QH 65.4 miles 295° 2019-04-07 00:19:04
N6EX-1 7 2019-04-05 20:16:15 2019-04-07 00:29:32 DM13IP > DM04XE 58.3 miles 312° 2019-04-06 23:47:56
VEGAS 7 2019-04-05 17:51:12 2019-04-07 03:19:12 DM14GI > DM25FX 158.0 miles 44° 2019-04-07 00:51:33
BISHOP 12 2019-04-05 14:06:58 2019-04-07 12:20:57 DM06VS > DM07VJ 44.0 miles 0° 2019-04-07 10:44:30
KG6HSQ-2 7 2019-04-05 21:48:58 2019-04-06 22:57:19 DM13LI > DM13JJ 12.5 miles 281° 2019-04-05 22:25:28
WA6LDQ-3 5 2019-04-05 17:42:39 2019-04-07 02:32:01 DM14FW > DM05RD 61.6 miles 285° 2019-04-07 01:43:02
SNOW 4 2019-04-05 11:41:29 2019-04-05 12:24:24 DM08QM > DM09BD 81.2 miles 303° 2019-04-05 12:24:24
KF6ILA 4 2019-04-06 12:08:55 2019-04-06 22:25:32 DM13MH > DM13RB 26.5 miles 127° 2019-04-06 22:25:32
KA6PTJ-3 22 2019-04-05 17:21:50 2019-04-07 02:32:01 DM14GJ > DM05SB 74.8 miles 309° 2019-04-07 00:56:04
KELLER 67 2019-04-05 17:47:11 2019-04-07 02:22:23 DM15EJ > DM14LE 87.7 miles 158° 2019-04-05 17:47:11
AD6TS 2 2019-04-05 19:58:04 2019-04-07 00:48:11 DM14GH > DM14FD 13.4 miles 202° 2019-04-07 00:48:11
KF6ILA-10 61 2019-04-05 19:59:58 2019-04-07 00:44:49 DM14GG > DM13NI 70.9 miles 151° 2019-04-07 00:44:49
N6JCM 19 2019-04-05 20:06:02 2019-04-07 00:38:49 DM14GE > DM13FT 26.6 miles 195° 2019-04-07 00:38:49
W3ISZ-1 1 2019-04-07 03:15:43 2019-04-07 03:15:43 DM15AX > DM15DO 30.4 miles 153° 2019-04-07 03:15:43
KD6DCN-5 3 2019-04-05 22:33:19 2019-04-06 22:27:46 DM13MH > DM12MS 35.7 miles 183° 2019-04-06 22:27:46
XE2SI-10 1 2019-04-06 12:48:32 2019-04-06 12:48:32 DM13PA > DM12MM 39.3 miles 208° 2019-04-06 12:48:32
AF6UA-10 39 2019-04-05 22:34:22 2019-04-06 22:31:07 DM13QB > DM13LC 25.7 miles 278° 2019-04-06 12:23:33
KD0GG 2 2019-04-05 19:44:16 2019-04-07 00:44:46 DM14GI > DM14IA 24.1 miles 150° 2019-04-05 19:44:16
N6SUN-10 12 2019-04-05 22:15:57 2019-04-06 22:23:25 DM13QB > DM13KB 26.2 miles 275° 2019-04-06 12:40:51
KJ6YLW-2 1 2019-04-06 22:06:48 2019-04-06 22:06:48 DM13OF > DM13QD 11.3 miles 119° 2019-04-06 22:06:48
KB6NIZ-1 41 2019-04-05 16:38:03 2019-04-07 09:53:24 DM16AF > DM15EO 48.9 miles 158° 2019-04-05 16:38:03
KN0RDC-15 1 2019-04-06 12:46:55 2019-04-06 12:46:55 DM13PA > DM04KT 187.0 miles 312° 2019-04-06 12:46:55
N6KMA 4 2019-04-05 20:33:39 2019-04-07 00:18:57 DM13FW > IO80MA 5392.1 miles 37° 2019-04-05 20:33:39
W6MF-1 6 2019-04-05 22:10:50 2019-04-06 23:36:58 DM13OF > DM13JI 27.8 miles 289° 2019-04-05 23:01:47
KG6PJG-10 4 2019-04-05 19:37:39 2019-04-07 02:18:52 DM15EG > DM14NF 83.9 miles 149° 2019-04-07 02:18:52
KF6NXQ-15 25 2019-04-05 21:23:19 2019-04-06 23:47:53 DM13QB > DM13IN 53.0 miles 312° 2019-04-06 12:23:01
N6LXX-10 4 2019-04-05 18:15:40 2019-04-07 02:14:13 DM15EE > DM04UJ 69.9 miles 216° 2019-04-07 02:14:13
N6LXX-1 8 2019-04-05 18:39:49 2019-04-07 02:22:22 DM14GH > DM15RC 75.2 miles 44° 2019-04-07 00:50:05
N6LXX-2 12 2019-04-05 21:32:32 2019-04-06 23:45:33 DM13JO > DM12MQ 65.3 miles 164° 2019-04-06 23:45:33
KA9Q 1 2019-04-05 22:33:13 2019-04-05 22:33:13 DM13MH > DM13MA 20.3 miles 187° 2019-04-05 22:33:13

Only position packets which were originated by the station are shown here. The range statistics show some extra long hops, because some digipeaters do not correctly add themselves to the digipeater path. Please check the raw packets.
About this site
This page shows real-time information collected from the Automatic Position Reporting System Internet network (APRS-IS). APRS is used by amateur (ham) radio operators to transmit real-time position information, weather data, telemetry and messages over the radio. A vehicle equipped with a GPS receiver, a VHF transmitter or HF transceiver and a small computer device called a tracker transmits it's location, speed and course in a small data packet, which is then received by a nearby iGate receiving site which forwards the packet on the Internet. Systems connected to the Internet can send information on the APRS-IS without a radio transmitter, or collect and display information transmitted anywhere in the world.
FAQ · Blog · Discussion group · Linking to aprs.fi · AIS sites · Service status · Database statistics · Advertising on aprs.fi · Technical details · API · Change log · Planned changes · Credits and thanks · Terms Of Service · iPhone/iPad APRS